sensor_id;sensor_type;location;lat;lon;timestamp;pressure;altitude;pressure_sealevel;temperature;humidity
76866;BME280;66647;52.124;5.416;2024-02-23T00:01:13;98768.09;;;4.31;100.00
76866;BME280;66647;52.124;5.416;2024-02-23T00:03:41;98775.09;;;4.32;100.00
76866;BME280;66647;52.124;5.416;2024-02-23T00:06:16;98780.19;;;4.34;100.00
76866;BME280;66647;52.124;5.416;2024-02-23T00:09:08;98782.72;;;4.39;100.00
76866;BME280;66647;52.124;5.416;2024-02-23T00:11:34;98783.63;;;4.43;100.00
76866;BME280;66647;52.124;5.416;2024-02-23T00:14:45;98782.97;;;4.46;100.00
76866;BME280;66647;52.124;5.416;2024-02-23T00:17:12;98794.28;;;4.48;100.00
76866;BME280;66647;52.124;5.416;2024-02-23T00:19:39;98797.44;;;4.50;100.00
76866;BME280;66647;52.124;5.416;2024-02-23T00:22:43;98800.94;;;4.51;100.00
76866;BME280;66647;52.124;5.416;2024-02-23T00:25:35;98802.19;;;4.53;100.00
76866;BME280;66647;52.124;5.416;2024-02-23T00:28:02;98805.34;;;4.55;100.00
76866;BME280;66647;52.124;5.416;2024-02-23T00:30:42;98806.13;;;4.56;100.00
76866;BME280;66647;52.124;5.416;2024-02-23T00:33:09;98806.94;;;4.56;100.00
76866;BME280;66647;52.124;5.416;2024-02-23T00:35:39;98807.38;;;4.58;100.00
76866;BME280;66647;52.124;5.416;2024-02-23T00:38:06;98810.56;;;4.60;100.00
76866;BME280;66647;52.124;5.416;2024-02-23T00:40:39;98823.47;;;4.63;100.00
76866;BME280;66647;52.124;5.416;2024-02-23T00:43:09;98822.34;;;4.64;100.00
76866;BME280;66647;52.124;5.416;2024-02-23T00:45:39;98818.50;;;4.65;100.00
76866;BME280;66647;52.124;5.416;2024-02-23T00:48:06;98831.41;;;4.68;100.00
76866;BME280;66647;52.124;5.416;2024-02-23T00:50:38;98834.91;;;4.69;100.00
76866;BME280;66647;52.124;5.416;2024-02-23T00:53:15;98827.22;;;4.71;100.00
76866;BME280;66647;52.124;5.416;2024-02-23T00:55:42;98828.47;;;4.73;100.00
76866;BME280;66647;52.124;5.416;2024-02-23T00:58:08;98842.03;;;4.73;100.00
76866;BME280;66647;52.124;5.416;2024-02-23T01:00:35;98841.59;;;4.71;100.00
76866;BME280;66647;52.124;5.416;2024-02-23T01:03:01;98839.22;;;4.70;100.00
76866;BME280;66647;52.124;5.416;2024-02-23T01:05:40;98843.06;;;4.69;100.00
76866;BME280;66647;52.124;5.416;2024-02-23T01:08:09;98846.09;;;4.67;100.00
76866;BME280;66647;52.124;5.416;2024-02-23T01:10:43;98857.63;;;4.64;100.00
76866;BME280;66647;52.124;5.416;2024-02-23T01:13:09;98880.00;;;4.61;100.00
76866;BME280;66647;52.124;5.416;2024-02-23T01:15:36;98863.69;;;4.49;100.00
76866;BME280;66647;52.124;5.416;2024-02-23T01:18:04;98869.06;;;4.37;100.00
76866;BME280;66647;52.124;5.416;2024-02-23T01:20:41;98894.47;;;4.32;100.00
76866;BME280;66647;52.124;5.416;2024-02-23T01:23:33;98880.00;;;4.28;100.00
76866;BME280;66647;52.124;5.416;2024-02-23T01:25:59;98882.56;;;4.25;100.00
76866;BME280;66647;52.124;5.416;2024-02-23T01:35:50;98911.84;;;4.19;100.00
76866;BME280;66647;52.124;5.416;2024-02-23T01:38:30;98924.28;;;4.20;100.00
76866;BME280;66647;52.124;5.416;2024-02-23T01:48:45;98911.38;;;4.17;100.00
76866;BME280;66647;52.124;5.416;2024-02-23T01:51:50;98916.47;;;4.19;100.00
76866;BME280;66647;52.124;5.416;2024-02-23T01:59:37;98939.34;;;4.30;100.00
76866;BME280;66647;52.124;5.416;2024-02-23T02:02:46;98936.97;;;4.28;100.00
76866;BME280;66647;52.124;5.416;2024-02-23T02:05:14;98945.91;;;4.29;100.00
76866;BME280;66647;52.124;5.416;2024-02-23T02:07:41;98943.97;;;4.29;100.00
76866;BME280;66647;52.124;5.416;2024-02-23T02:10:33;98949.72;;;4.28;100.00
76866;BME280;66647;52.124;5.416;2024-02-23T02:13:03;98953.91;;;4.25;100.00
76866;BME280;66647;52.124;5.416;2024-02-23T02:15:31;98956.28;;;4.27;100.00
76866;BME280;66647;52.124;5.416;2024-02-23T02:17:57;98940.66;;;4.24;100.00
76866;BME280;66647;52.124;5.416;2024-02-23T02:20:25;98949.50;;;4.21;100.00
76866;BME280;66647;52.124;5.416;2024-02-23T02:22:54;98948.22;;;4.18;100.00
76866;BME280;66647;52.124;5.416;2024-02-23T02:25:21;98945.84;;;4.17;100.00
76866;BME280;66647;52.124;5.416;2024-02-23T02:27:48;98947.75;;;4.16;100.00
76866;BME280;66647;52.124;5.416;2024-02-23T02:30:35;98947.63;;;4.13;100.00
76866;BME280;66647;52.124;5.416;2024-02-23T02:33:10;98950.34;;;4.13;100.00
76866;BME280;66647;52.124;5.416;2024-02-23T02:35:46;98951.78;;;4.10;100.00
76866;BME280;66647;52.124;5.416;2024-02-23T02:38:31;98953.38;;;4.11;100.00
76866;BME280;66647;52.124;5.416;2024-02-23T02:40:59;98953.69;;;4.10;100.00
76866;BME280;66647;52.124;5.416;2024-02-23T02:43:29;98953.56;;;4.06;100.00
76866;BME280;66647;52.124;5.416;2024-02-23T02:46:20;98951.19;;;4.04;100.00
76866;BME280;66647;52.124;5.416;2024-02-23T02:48:47;98964.28;;;4.02;100.00
76866;BME280;66647;52.124;5.416;2024-02-23T02:51:13;98965.88;;;4.03;100.00
76866;BME280;66647;52.124;5.416;2024-02-23T02:53:49;98972.41;;;4.02;100.00
76866;BME280;66647;52.124;5.416;2024-02-23T02:56:16;98969.69;;;4.02;100.00
76866;BME280;66647;52.124;5.416;2024-02-23T02:58:42;98972.41;;;4.02;100.00
76866;BME280;66647;52.124;5.416;2024-02-23T03:01:09;98966.19;;;4.02;100.00
76866;BME280;66647;52.124;5.416;2024-02-23T03:03:58;98961.41;;;3.99;100.00
76866;BME280;66647;52.124;5.416;2024-02-23T03:06:25;98966.50;;;4.00;100.00
76866;BME280;66647;52.124;5.416;2024-02-23T03:12:53;98968.28;;;3.96;100.00
76866;BME280;66647;52.124;5.416;2024-02-23T03:15:23;98978.34;;;3.96;100.00
76866;BME280;66647;52.124;5.416;2024-02-23T03:18:02;98972.91;;;3.96;100.00
76866;BME280;66647;52.124;5.416;2024-02-23T03:20:29;98991.56;;;3.97;100.00
76866;BME280;66647;52.124;5.416;2024-02-23T03:23:13;98997.66;;;3.94;100.00
76866;BME280;66647;52.124;5.416;2024-02-23T03:25:42;98981.59;;;3.89;100.00
76866;BME280;66647;52.124;5.416;2024-02-23T03:28:09;98989.25;;;3.87;100.00
76866;BME280;66647;52.124;5.416;2024-02-23T03:30:36;98982.25;;;3.86;100.00
76866;BME280;66647;52.124;5.416;2024-02-23T03:33:06;98995.00;;;3.86;100.00
76866;BME280;66647;52.124;5.416;2024-02-23T03:35:32;98985.28;;;3.85;100.00
76866;BME280;66647;52.124;5.416;2024-02-23T03:37:59;99003.47;;;3.84;100.00
76866;BME280;66647;52.124;5.416;2024-02-23T03:40:26;99004.91;;;3.82;100.00
76866;BME280;66647;52.124;5.416;2024-02-23T03:42:52;99000.13;;;3.79;100.00
76866;BME280;66647;52.124;5.416;2024-02-23T03:45:19;99006.53;;;3.74;100.00
76866;BME280;66647;52.124;5.416;2024-02-23T03:47:46;99020.25;;;3.69;100.00
76866;BME280;66647;52.124;5.416;2024-02-23T03:50:13;99028.38;;;3.69;100.00
76866;BME280;66647;52.124;5.416;2024-02-23T03:52:40;99021.84;;;3.70;100.00
76866;BME280;66647;52.124;5.416;2024-02-23T03:55:06;99021.66;;;3.75;100.00
76866;BME280;66647;52.124;5.416;2024-02-23T03:57:47;99027.09;;;3.75;100.00
76866;BME280;66647;52.124;5.416;2024-02-23T04:00:20;99018.81;;;3.71;100.00
76866;BME280;66647;52.124;5.416;2024-02-23T04:02:57;99014.97;;;3.72;100.00
76866;BME280;66647;52.124;5.416;2024-02-23T04:05:24;99015.31;;;3.71;100.00
76866;BME280;66647;52.124;5.416;2024-02-23T04:07:51;99019.13;;;3.70;100.00
76866;BME280;66647;52.124;5.416;2024-02-23T04:10:34;99018.19;;;3.66;100.00
76866;BME280;66647;52.124;5.416;2024-02-23T04:13:02;99014.22;;;3.63;100.00
76866;BME280;66647;52.124;5.416;2024-02-23T04:15:31;99016.78;;;3.60;100.00
76866;BME280;66647;52.124;5.416;2024-02-23T04:17:58;99026.38;;;3.57;100.00
76866;BME280;66647;52.124;5.416;2024-02-23T04:20:25;99029.41;;;3.56;100.00
76866;BME280;66647;52.124;5.416;2024-02-23T04:22:51;99026.69;;;3.56;100.00
76866;BME280;66647;52.124;5.416;2024-02-23T04:25:22;99037.53;;;3.56;100.00
76866;BME280;66647;52.124;5.416;2024-02-23T04:27:50;99038.97;;;3.53;100.00
76866;BME280;66647;52.124;5.416;2024-02-23T04:30:19;99039.31;;;3.52;100.00
76866;BME280;66647;52.124;5.416;2024-02-23T04:32:46;99040.41;;;3.51;100.00
76866;BME280;66647;52.124;5.416;2024-02-23T04:35:12;99031.03;;;3.48;100.00
76866;BME280;66647;52.124;5.416;2024-02-23T04:37:39;99047.28;;;3.48;100.00
76866;BME280;66647;52.124;5.416;2024-02-23T04:40:22;99038.19;;;3.44;100.00
76866;BME280;66647;52.124;5.416;2024-02-23T04:42:49;99040.44;;;3.42;100.00
76866;BME280;66647;52.124;5.416;2024-02-23T04:45:16;99048.88;;;3.41;100.00
76866;BME280;66647;52.124;5.416;2024-02-23T04:47:43;99056.22;;;3.40;100.00
76866;BME280;66647;52.124;5.416;2024-02-23T04:50:16;99059.72;;;3.41;100.00
76866;BME280;66647;52.124;5.416;2024-02-23T04:53:03;99056.03;;;3.45;100.00
76866;BME280;66647;52.124;5.416;2024-02-23T04:55:30;99059.22;;;3.47;100.00
76866;BME280;66647;52.124;5.416;2024-02-23T04:58:07;99060.81;;;3.48;100.00
76866;BME280;66647;52.124;5.416;2024-02-23T05:00:36;99058.25;;;3.52;100.00
76866;BME280;66647;52.124;5.416;2024-02-23T05:03:03;99058.75;;;3.54;100.00
76866;BME280;66647;52.124;5.416;2024-02-23T05:05:30;99057.31;;;3.56;100.00
76866;BME280;66647;52.124;5.416;2024-02-23T05:08:01;99052.31;;;3.58;100.00
76866;BME280;66647;52.124;5.416;2024-02-23T05:10:31;99055.84;;;3.59;100.00
76866;BME280;66647;52.124;5.416;2024-02-23T05:12:57;99056.31;;;3.61;100.00
76866;BME280;66647;52.124;5.416;2024-02-23T05:15:30;99055.19;;;3.62;100.00
76866;BME280;66647;52.124;5.416;2024-02-23T05:18:03;99057.56;;;3.63;100.00
76866;BME280;66647;52.124;5.416;2024-02-23T05:20:32;99050.72;;;3.66;100.00
76866;BME280;66647;52.124;5.416;2024-02-23T05:22:59;99068.56;;;3.67;100.00
76866;BME280;66647;52.124;5.416;2024-02-23T05:25:27;99053.09;;;3.67;100.00
76866;BME280;66647;52.124;5.416;2024-02-23T05:27:54;99052.47;;;3.70;100.00
76866;BME280;66647;52.124;5.416;2024-02-23T05:30:23;99053.25;;;3.71;100.00
76866;BME280;66647;52.124;5.416;2024-02-23T05:33:12;99061.06;;;3.72;100.00
76866;BME280;66647;52.124;5.416;2024-02-23T05:35:49;99063.44;;;3.74;100.00
76866;BME280;66647;52.124;5.416;2024-02-23T05:54:13;99067.56;;;3.80;100.00
76866;BME280;66647;52.124;5.416;2024-02-23T05:56:40;99055.16;;;3.79;100.00
76866;BME280;66647;52.124;5.416;2024-02-23T05:59:07;99053.69;;;3.82;100.00
76866;BME280;66647;52.124;5.416;2024-02-23T06:02:04;99055.28;;;3.83;100.00
76866;BME280;66647;52.124;5.416;2024-02-23T06:04:30;99055.75;;;3.85;100.00
76866;BME280;66647;52.124;5.416;2024-02-23T06:11:34;99054.13;;;3.92;100.00
76866;BME280;66647;52.124;5.416;2024-02-23T06:28:24;99063.81;;;4.02;100.00
76866;BME280;66647;52.124;5.416;2024-02-23T06:30:52;99065.06;;;4.04;100.00
76866;BME280;66647;52.124;5.416;2024-02-23T06:36:42;99077.66;;;4.09;100.00
76866;BME280;66647;52.124;5.416;2024-02-23T06:39:10;99073.50;;;4.12;100.00
76866;BME280;66647;52.124;5.416;2024-02-23T06:41:41;99078.28;;;4.15;100.00
76866;BME280;66647;52.124;5.416;2024-02-23T06:44:26;99079.22;;;4.19;100.00
76866;BME280;66647;52.124;5.416;2024-02-23T06:46:59;99079.38;;;4.22;100.00
76866;BME280;66647;52.124;5.416;2024-02-23T06:49:26;99080.13;;;4.23;100.00
76866;BME280;66647;52.124;5.416;2024-02-23T06:51:53;99077.09;;;4.24;100.00
76866;BME280;66647;52.124;5.416;2024-02-23T06:54:21;99082.19;;;4.26;100.00
76866;BME280;66647;52.124;5.416;2024-02-23T06:56:52;99076.44;;;4.27;100.00
76866;BME280;66647;52.124;5.416;2024-02-23T06:59:19;99082.34;;;4.29;100.00
76866;BME280;66647;52.124;5.416;2024-02-23T07:02:01;99074.66;;;4.31;100.00
76866;BME280;66647;52.124;5.416;2024-02-23T07:04:40;99075.94;;;4.34;100.00
76866;BME280;66647;52.124;5.416;2024-02-23T07:07:09;99074.81;;;4.35;100.00
76866;BME280;66647;52.124;5.416;2024-02-23T07:09:55;99075.59;;;4.35;100.00
76866;BME280;66647;52.124;5.416;2024-02-23T07:12:34;99072.56;;;4.37;100.00
76866;BME280;66647;52.124;5.416;2024-02-23T07:15:00;99073.69;;;4.36;100.00
76866;BME280;66647;52.124;5.416;2024-02-23T07:17:58;99076.53;;;4.39;100.00
76866;BME280;66647;52.124;5.416;2024-02-23T07:20:26;99087.88;;;4.42;100.00
76866;BME280;66647;52.124;5.416;2024-02-23T07:22:54;99076.69;;;4.43;100.00
76866;BME280;66647;52.124;5.416;2024-02-23T07:25:32;99077.16;;;4.45;100.00
76866;BME280;66647;52.124;5.416;2024-02-23T07:28:01;99074.91;;;4.47;100.00
76866;BME280;66647;52.124;5.416;2024-02-23T07:30:47;99080.16;;;4.52;100.00
76866;BME280;66647;52.124;5.416;2024-02-23T07:33:14;99082.19;;;4.55;100.00
76866;BME280;66647;52.124;5.416;2024-02-23T07:35:48;99077.22;;;4.57;100.00
76866;BME280;66647;52.124;5.416;2024-02-23T07:38:15;99077.22;;;4.57;100.00
76866;BME280;66647;52.124;5.416;2024-02-23T07:41:03;99071.47;;;4.59;100.00
76866;BME280;66647;52.124;5.416;2024-02-23T07:43:30;99073.19;;;4.63;100.00
76866;BME280;66647;52.124;5.416;2024-02-23T07:45:57;99057.84;;;4.67;100.00
76866;BME280;66647;52.124;5.416;2024-02-23T07:48:25;99059.56;;;4.72;100.00
76866;BME280;66647;52.124;5.416;2024-02-23T07:50:55;99056.78;;;4.81;100.00
76866;BME280;66647;52.124;5.416;2024-02-23T07:53:32;99045.03;;;4.89;100.00
76866;BME280;66647;52.124;5.416;2024-02-23T07:56:12;99045.50;;;4.91;100.00
76866;BME280;66647;52.124;5.416;2024-02-23T07:58:39;99046.78;;;4.93;100.00
76866;BME280;66647;52.124;5.416;2024-02-23T08:01:05;99052.19;;;4.93;100.00
76866;BME280;66647;52.124;5.416;2024-02-23T08:03:32;99042.47;;;4.92;100.00
76866;BME280;66647;52.124;5.416;2024-02-23T08:05:59;99053.00;;;4.94;100.00
76866;BME280;66647;52.124;5.416;2024-02-23T08:08:29;99051.06;;;4.94;100.00
76866;BME280;66647;52.124;5.416;2024-02-23T08:10:59;99049.16;;;4.95;100.00
76866;BME280;66647;52.124;5.416;2024-02-23T08:13:26;99042.94;;;4.94;100.00
76866;BME280;66647;52.124;5.416;2024-02-23T08:15:52;99035.25;;;4.96;100.00
76866;BME280;66647;52.124;5.416;2024-02-23T08:18:19;99038.09;;;5.00;100.00
76866;BME280;66647;52.124;5.416;2024-02-23T08:20:49;99039.81;;;5.04;100.00
76866;BME280;66647;52.124;5.416;2024-02-23T08:23:18;99034.50;;;5.08;100.00
76866;BME280;66647;52.124;5.416;2024-02-23T08:25:49;99024.44;;;5.09;100.00
76866;BME280;66647;52.124;5.416;2024-02-23T08:28:19;99034.50;;;5.08;100.00
76866;BME280;66647;52.124;5.416;2024-02-23T08:30:45;99040.75;;;5.09;100.00
76866;BME280;66647;52.124;5.416;2024-02-23T08:33:12;99038.69;;;5.05;100.00
76866;BME280;66647;52.124;5.416;2024-02-23T08:35:39;99036.75;;;5.06;100.00
76866;BME280;66647;52.124;5.416;2024-02-23T08:38:08;99053.06;;;5.06;100.00
76866;BME280;66647;52.124;5.416;2024-02-23T08:40:35;99029.41;;;5.06;100.00
76866;BME280;66647;52.124;5.416;2024-02-23T08:43:02;99024.31;;;5.05;100.00
76866;BME280;66647;52.124;5.416;2024-02-23T08:45:37;99024.31;;;5.05;100.00
76866;BME280;66647;52.124;5.416;2024-02-23T08:48:04;99016.63;;;5.07;100.00
76866;BME280;66647;52.124;5.416;2024-02-23T08:50:31;99015.03;;;5.06;100.00
76866;BME280;66647;52.124;5.416;2024-02-23T08:53:01;99017.75;;;5.06;100.00
76866;BME280;66647;52.124;5.416;2024-02-23T08:55:27;99016.63;;;5.07;100.00
76866;BME280;66647;52.124;5.416;2024-02-23T08:57:55;99024.63;;;5.03;100.00
76866;BME280;66647;52.124;5.416;2024-02-23T09:00:21;99024.19;;;5.01;100.00
76866;BME280;66647;52.124;5.416;2024-02-23T09:02:49;99021.00;;;4.99;100.00
76866;BME280;66647;52.124;5.416;2024-02-23T09:05:16;99026.09;;;5.01;100.00
76866;BME280;66647;52.124;5.416;2024-02-23T09:07:44;99022.25;;;5.02;100.00
76866;BME280;66647;52.124;5.416;2024-02-23T09:10:54;99037.09;;;5.04;100.00
76866;BME280;66647;52.124;5.416;2024-02-23T09:13:48;99041.53;;;5.09;100.00
76866;BME280;66647;52.124;5.416;2024-02-23T09:16:44;99029.53;;;5.10;100.00
76866;BME280;66647;52.124;5.416;2024-02-23T09:19:14;99034.97;;;5.10;100.00
76866;BME280;66647;52.124;5.416;2024-02-23T09:21:45;99039.28;;;5.11;100.00
76866;BME280;66647;52.124;5.416;2024-02-23T09:24:12;99037.34;;;5.12;100.00
76866;BME280;66647;52.124;5.416;2024-02-23T09:26:39;99034.31;;;5.13;100.00
76866;BME280;66647;52.124;5.416;2024-02-23T09:29:06;99045.63;;;5.15;100.00
76866;BME280;66647;52.124;5.416;2024-02-23T09:31:32;99041.91;;;5.20;100.00
76866;BME280;66647;52.124;5.416;2024-02-23T09:33:59;99047.44;;;5.23;100.00
76866;BME280;66647;52.124;5.416;2024-02-23T09:37:04;99037.38;;;5.24;100.00
76866;BME280;66647;52.124;5.416;2024-02-23T09:40:04;99039.75;;;5.25;100.00
76866;BME280;66647;52.124;5.416;2024-02-23T09:46:34;99060.38;;;5.26;100.00
76866;BME280;66647;52.124;5.416;2024-02-23T09:53:45;99071.72;;;5.28;100.00
76866;BME280;66647;52.124;5.416;2024-02-23T09:56:27;99069.00;;;5.28;100.00
76866;BME280;66647;52.124;5.416;2024-02-23T09:59:01;99072.50;;;5.29;100.00
76866;BME280;66647;52.124;5.416;2024-02-23T10:01:29;99084.16;;;5.29;100.00
76866;BME280;66647;52.124;5.416;2024-02-23T10:04:00;99086.69;;;5.34;100.00
76866;BME280;66647;52.124;5.416;2024-02-23T10:06:28;99069.63;;;5.46;100.00
76866;BME280;66647;52.124;5.416;2024-02-23T10:08:56;99064.38;;;5.74;100.00
76866;BME280;66647;52.124;5.416;2024-02-23T10:11:23;99072.78;;;5.81;100.00
76866;BME280;66647;52.124;5.416;2024-02-23T10:13:51;99080.34;;;5.88;100.00
76866;BME280;66647;52.124;5.416;2024-02-23T10:16:23;99065.50;;;5.85;100.00
76866;BME280;66647;52.124;5.416;2024-02-23T10:19:00;99079.09;;;5.85;100.00
76866;BME280;66647;52.124;5.416;2024-02-23T10:21:27;99077.53;;;5.84;100.00
76866;BME280;66647;52.124;5.416;2024-02-23T10:23:55;99087.25;;;5.85;100.00
76866;BME280;66647;52.124;5.416;2024-02-23T10:26:22;99082.19;;;5.84;100.00
76866;BME280;66647;52.124;5.416;2024-02-23T10:28:49;99083.78;;;5.85;100.00
76866;BME280;66647;52.124;5.416;2024-02-23T10:31:24;99087.72;;;5.87;100.00
76866;BME280;66647;52.124;5.416;2024-02-23T10:33:51;99090.69;;;5.82;100.00
76866;BME280;66647;52.124;5.416;2024-02-23T10:36:19;99094.06;;;5.79;100.00
76866;BME280;66647;52.124;5.416;2024-02-23T10:38:56;99093.59;;;5.77;100.00
76866;BME280;66647;52.124;5.416;2024-02-23T10:41:57;99093.94;;;5.76;100.00
76866;BME280;66647;52.124;5.416;2024-02-23T10:44:28;99104.81;;;5.76;100.00
76866;BME280;66647;52.124;5.416;2024-02-23T10:46:55;99120.69;;;5.73;100.00
76866;BME280;66647;52.124;5.416;2024-02-23T10:49:25;99119.44;;;5.71;100.00
76866;BME280;66647;52.124;5.416;2024-02-23T10:51:54;99127.59;;;5.71;100.00
76866;BME280;66647;52.124;5.416;2024-02-23T10:54:21;99125.66;;;5.71;100.00
76866;BME280;66647;52.124;5.416;2024-02-23T10:56:50;99123.06;;;5.75;100.00
76866;BME280;66647;52.124;5.416;2024-02-23T10:59:49;99121.06;;;5.84;100.00
76866;BME280;66647;52.124;5.416;2024-02-23T11:15:08;99127.72;;;6.44;100.00
76866;BME280;66647;52.124;5.416;2024-02-23T11:27:14;99122.31;;;7.36;100.00
76866;BME280;66647;52.124;5.416;2024-02-23T11:42:12;99107.19;;;7.67;100.00
76866;BME280;66647;52.124;5.416;2024-02-23T11:44:38;99126.41;;;7.86;100.00
76866;BME280;66647;52.124;5.416;2024-02-23T11:47:05;99123.13;;;7.81;98.29
76866;BME280;66647;52.124;5.416;2024-02-23T12:32:34;99144.53;;;8.38;94.75
76866;BME280;66647;52.124;5.416;2024-02-23T13:15:34;99187.13;;;8.27;90.85
76866;BME280;66647;52.124;5.416;2024-02-23T13:18:18;99178.34;;;8.33;90.64
76866;BME280;66647;52.124;5.416;2024-02-23T13:21:20;99179.63;;;8.24;90.17
76866;BME280;66647;52.124;5.416;2024-02-23T13:24:36;99184.00;;;8.13;89.55
76866;BME280;66647;52.124;5.416;2024-02-23T13:30:53;99186.47;;;8.02;91.28
76866;BME280;66647;52.124;5.416;2024-02-23T13:33:20;99189.22;;;8.02;90.44
76866;BME280;66647;52.124;5.416;2024-02-23T13:35:59;99186.03;;;8.16;91.80
76866;BME280;66647;52.124;5.416;2024-02-23T13:45:33;99185.09;;;8.24;89.84
76866;BME280;66647;52.124;5.416;2024-02-23T13:49:06;99174.97;;;8.24;90.35
76866;BME280;66647;52.124;5.416;2024-02-23T13:52:01;99181.41;;;8.32;89.57
76866;BME280;66647;52.124;5.416;2024-02-23T13:54:52;99185.25;;;8.43;89.50
76866;BME280;66647;52.124;5.416;2024-02-23T13:57:18;99189.72;;;8.51;88.91
76866;BME280;66647;52.124;5.416;2024-02-23T13:59:57;99187.97;;;8.43;87.84
76866;BME280;66647;52.124;5.416;2024-02-23T14:06:49;99201.19;;;8.41;87.99
76866;BME280;66647;52.124;5.416;2024-02-23T14:09:47;99203.81;;;8.37;88.87
76866;BME280;66647;52.124;5.416;2024-02-23T14:20:50;99201.88;;;8.38;87.91
76866;BME280;66647;52.124;5.416;2024-02-23T14:23:20;99214.94;;;8.45;88.52
76866;BME280;66647;52.124;5.416;2024-02-23T14:29:43;99209.81;;;8.43;88.70
76866;BME280;66647;52.124;5.416;2024-02-23T14:32:23;99203.56;;;8.43;88.29
76866;BME280;66647;52.124;5.416;2024-02-23T14:34:50;99215.88;;;8.36;88.55
76866;BME280;66647;52.124;5.416;2024-02-23T14:37:17;99208.72;;;8.32;89.15
76866;BME280;66647;52.124;5.416;2024-02-23T14:40:10;99209.41;;;8.29;88.66
76866;BME280;66647;52.124;5.416;2024-02-23T14:42:38;99214.78;;;8.25;89.30
76866;BME280;66647;52.124;5.416;2024-02-23T14:45:06;99216.03;;;8.28;90.09
76866;BME280;66647;52.124;5.416;2024-02-23T14:47:42;99225.00;;;8.28;88.32
76866;BME280;66647;52.124;5.416;2024-02-23T14:50:16;99226.50;;;8.26;87.93
76866;BME280;66647;52.124;5.416;2024-02-23T14:52:43;99228.44;;;8.25;86.63
76866;BME280;66647;52.124;5.416;2024-02-23T14:55:11;99237.41;;;8.26;86.25
76866;BME280;66647;52.124;5.416;2024-02-23T14:57:42;99236.53;;;8.22;87.33
76866;BME280;66647;52.124;5.416;2024-02-23T15:33:36;99253.72;;;7.94;89.16
76866;BME280;66647;52.124;5.416;2024-02-23T15:43:06;99265.13;;;7.84;89.42
76866;BME280;66647;52.124;5.416;2024-02-23T15:45:32;99265.38;;;7.79;89.85
76866;BME280;66647;52.124;5.416;2024-02-23T15:48:00;99260.63;;;7.76;90.14
76866;BME280;66647;52.124;5.416;2024-02-23T15:50:42;99258.56;;;7.73;90.89
76866;BME280;66647;52.124;5.416;2024-02-23T15:53:48;99262.00;;;7.70;91.66
76866;BME280;66647;52.124;5.416;2024-02-23T16:09:59;99273.03;;;7.49;95.44
76866;BME280;66647;52.124;5.416;2024-02-23T16:43:14;99302.63;;;7.23;100.00
76866;BME280;66647;52.124;5.416;2024-02-23T16:45:46;99298.31;;;7.22;100.00
76866;BME280;66647;52.124;5.416;2024-02-23T16:49:07;99307.50;;;7.17;100.00
76866;BME280;66647;52.124;5.416;2024-02-23T16:52:43;99310.47;;;7.12;100.00
76866;BME280;66647;52.124;5.416;2024-02-23T16:55:18;99311.16;;;7.09;100.00
76866;BME280;66647;52.124;5.416;2024-02-23T16:58:10;99312.63;;;7.06;100.00
76866;BME280;66647;52.124;5.416;2024-02-23T17:00:36;99313.31;;;7.03;100.00
76866;BME280;66647;52.124;5.416;2024-02-23T17:03:04;99316.38;;;7.02;100.00
76866;BME280;66647;52.124;5.416;2024-02-23T17:06:24;99314.78;;;7.01;100.00
76866;BME280;66647;52.124;5.416;2024-02-23T17:08:51;99318.63;;;7.00;100.00
76866;BME280;66647;52.124;5.416;2024-02-23T17:11:19;99327.94;;;6.99;100.00
76866;BME280;66647;52.124;5.416;2024-02-23T17:17:07;99332.69;;;6.90;100.00
76866;BME280;66647;52.124;5.416;2024-02-23T17:19:33;99331.78;;;6.86;100.00
76866;BME280;66647;52.124;5.416;2024-02-23T17:22:26;99330.44;;;6.80;100.00
76866;BME280;66647;52.124;5.416;2024-02-23T17:24:56;99339.47;;;6.71;100.00
76866;BME280;66647;52.124;5.416;2024-02-23T17:27:49;99336.97;;;6.66;100.00
76866;BME280;66647;52.124;5.416;2024-02-23T17:30:42;99334.47;;;6.61;100.00
76866;BME280;66647;52.124;5.416;2024-02-23T17:33:31;99329.56;;;6.55;100.00
76866;BME280;66647;52.124;5.416;2024-02-23T17:36:13;99329.09;;;6.53;100.00
76866;BME280;66647;52.124;5.416;2024-02-23T17:38:42;99329.44;;;6.51;100.00
76866;BME280;66647;52.124;5.416;2024-02-23T17:45:17;99329.53;;;6.43;100.00
76866;BME280;66647;52.124;5.416;2024-02-23T17:47:48;99332.94;;;6.39;100.00
76866;BME280;66647;52.124;5.416;2024-02-23T17:58:03;99384.31;;;6.41;100.00
76866;BME280;66647;52.124;5.416;2024-02-23T18:01:10;99416.50;;;6.18;100.00
76866;BME280;66647;52.124;5.416;2024-02-23T18:03:40;99430.75;;;5.94;100.00
76866;BME280;66647;52.124;5.416;2024-02-23T18:06:19;99426.84;;;5.74;100.00
76866;BME280;66647;52.124;5.416;2024-02-23T18:23:57;99431.25;;;5.58;100.00
76866;BME280;66647;52.124;5.416;2024-02-23T18:34:09;99416.06;;;5.57;100.00
76866;BME280;66647;52.124;5.416;2024-02-23T19:47:41;99405.25;;;5.11;100.00
76866;BME280;66647;52.124;5.416;2024-02-23T19:51:25;99403.31;;;5.11;100.00
76866;BME280;66647;52.124;5.416;2024-02-23T20:03:01;99413.88;;;5.04;100.00
76866;BME280;66647;52.124;5.416;2024-02-23T20:53:32;99481.16;;;5.07;100.00
76866;BME280;66647;52.124;5.416;2024-02-23T21:07:42;99463.41;;;5.18;100.00
76866;BME280;66647;52.124;5.416;2024-02-23T21:11:19;99463.72;;;5.17;100.00
76866;BME280;66647;52.124;5.416;2024-02-23T21:14:06;99461.81;;;5.17;100.00
76866;BME280;66647;52.124;5.416;2024-02-23T21:17:17;99464.19;;;5.19;100.00
76866;BME280;66647;52.124;5.416;2024-02-23T21:33:21;99466.41;;;5.25;100.00
76866;BME280;66647;52.124;5.416;2024-02-23T21:39:55;99492.16;;;5.19;100.00
76866;BME280;66647;52.124;5.416;2024-02-23T21:42:48;99493.59;;;5.17;100.00
76866;BME280;66647;52.124;5.416;2024-02-23T21:45:28;99502.56;;;5.17;100.00
76866;BME280;66647;52.124;5.416;2024-02-23T21:48:05;99503.69;;;5.16;100.00
76866;BME280;66647;52.124;5.416;2024-02-23T21:50:33;99496.97;;;5.14;100.00
76866;BME280;66647;52.124;5.416;2024-02-23T21:53:06;99500.31;;;5.11;100.00
76866;BME280;66647;52.124;5.416;2024-02-23T21:56:15;99504.66;;;5.03;100.00
76866;BME280;66647;52.124;5.416;2024-02-23T22:20:32;99489.34;;;4.81;100.00